sensor_id;sensor_type;location;lat;lon;timestamp;pressure;altitude;pressure_sealevel;temperature;humidity
11487;BME280;10510;47.942;9.442;2023-03-19T00:00:16;94272.56;;;7.50;100.00
11487;BME280;10510;47.942;9.442;2023-03-19T00:02:17;94276.47;;;7.46;100.00
11487;BME280;10510;47.942;9.442;2023-03-19T00:04:18;94277.63;;;7.44;100.00
11487;BME280;10510;47.942;9.442;2023-03-19T00:06:19;94277.16;;;7.40;100.00
11487;BME280;10510;47.942;9.442;2023-03-19T00:08:20;94277.84;;;7.34;100.00
11487;BME280;10510;47.942;9.442;2023-03-19T00:10:20;94280.16;;;7.29;100.00
11487;BME280;10510;47.942;9.442;2023-03-19T00:12:21;94289.44;;;7.23;100.00
11487;BME280;10510;47.942;9.442;2023-03-19T00:14:21;94281.03;;;7.21;100.00
11487;BME280;10510;47.942;9.442;2023-03-19T00:16:21;94291.56;;;7.20;100.00
11487;BME280;10510;47.942;9.442;2023-03-19T00:18:21;94287.19;;;7.20;100.00
11487;BME280;10510;47.942;9.442;2023-03-19T00:20:22;94295.63;;;7.22;100.00
11487;BME280;10510;47.942;9.442;2023-03-19T00:22:22;94293.38;;;7.19;100.00
11487;BME280;10510;47.942;9.442;2023-03-19T00:24:22;94298.75;;;7.18;100.00
11487;BME280;10510;47.942;9.442;2023-03-19T00:26:23;94303.78;;;7.11;100.00
11487;BME280;10510;47.942;9.442;2023-03-19T00:28:23;94299.13;;;7.07;100.00
11487;BME280;10510;47.942;9.442;2023-03-19T00:30:23;94303.66;;;7.04;100.00
11487;BME280;10510;47.942;9.442;2023-03-19T00:32:24;94302.88;;;7.04;100.00
11487;BME280;10510;47.942;9.442;2023-03-19T00:34:24;94312.13;;;7.07;100.00
11487;BME280;10510;47.942;9.442;2023-03-19T00:36:26;94313.72;;;7.08;100.00
11487;BME280;10510;47.942;9.442;2023-03-19T00:38:27;94316.16;;;7.09;100.00
11487;BME280;10510;47.942;9.442;2023-03-19T00:40:28;94320.84;;;7.14;100.00
11487;BME280;10510;47.942;9.442;2023-03-19T00:42:29;94319.06;;;7.14;100.00
11487;BME280;10510;47.942;9.442;2023-03-19T00:44:29;94323.09;;;7.17;100.00
11487;BME280;10510;47.942;9.442;2023-03-19T00:46:30;94321.97;;;7.19;100.00
11487;BME280;10510;47.942;9.442;2023-03-19T00:48:30;94322.41;;;7.23;100.00
11487;BME280;10510;47.942;9.442;2023-03-19T00:50:31;94331.34;;;7.28;100.00
11487;BME280;10510;47.942;9.442;2023-03-19T00:52:31;94323.84;;;7.34;100.00
11487;BME280;10510;47.942;9.442;2023-03-19T00:54:31;94330.94;;;7.40;100.00
11487;BME280;10510;47.942;9.442;2023-03-19T00:56:32;94325.25;;;7.44;100.00
11487;BME280;10510;47.942;9.442;2023-03-19T00:58:32;94316.13;;;7.48;100.00
11487;BME280;10510;47.942;9.442;2023-03-19T01:00:33;94326.00;;;7.53;100.00
11487;BME280;10510;47.942;9.442;2023-03-19T01:02:33;94326.47;;;7.57;100.00
11487;BME280;10510;47.942;9.442;2023-03-19T01:04:33;94326.78;;;7.62;100.00
11487;BME280;10510;47.942;9.442;2023-03-19T01:06:34;94319.59;;;7.64;100.00
11487;BME280;10510;47.942;9.442;2023-03-19T01:08:34;94325.25;;;7.67;100.00
11487;BME280;10510;47.942;9.442;2023-03-19T01:10:35;94319.69;;;7.70;100.00
11487;BME280;10510;47.942;9.442;2023-03-19T01:12:36;94320.19;;;7.74;100.00
11487;BME280;10510;47.942;9.442;2023-03-19T01:14:36;94325.66;;;7.79;100.00
11487;BME280;10510;47.942;9.442;2023-03-19T01:16:36;94324.34;;;7.83;100.00
11487;BME280;10510;47.942;9.442;2023-03-19T01:18:37;94324.81;;;7.87;100.00
11487;BME280;10510;47.942;9.442;2023-03-19T01:20:39;94325.25;;;7.90;100.00
11487;BME280;10510;47.942;9.442;2023-03-19T01:22:39;94322.31;;;7.93;100.00
11487;BME280;10510;47.942;9.442;2023-03-19T01:24:41;94325.56;;;7.95;100.00
11487;BME280;10510;47.942;9.442;2023-03-19T01:26:42;94330.41;;;7.99;100.00
11487;BME280;10510;47.942;9.442;2023-03-19T01:28:43;94339.81;;;8.00;100.00
11487;BME280;10510;47.942;9.442;2023-03-19T01:30:43;94334.63;;;8.00;100.00
11487;BME280;10510;47.942;9.442;2023-03-19T01:32:43;94336.59;;;7.97;100.00
11487;BME280;10510;47.942;9.442;2023-03-19T01:34:44;94341.97;;;7.96;100.00
11487;BME280;10510;47.942;9.442;2023-03-19T01:36:44;94344.75;;;7.94;100.00
11487;BME280;10510;47.942;9.442;2023-03-19T01:38:44;94346.53;;;7.94;100.00
11487;BME280;10510;47.942;9.442;2023-03-19T01:40:47;94346.53;;;7.94;100.00
11487;BME280;10510;47.942;9.442;2023-03-19T01:43:20;94349.13;;;7.94;100.00
11487;BME280;10510;47.942;9.442;2023-03-19T01:45:32;94356.94;;;7.94;100.00
11487;BME280;10510;47.942;9.442;2023-03-19T01:47:35;94352.38;;;7.96;100.00
11487;BME280;10510;47.942;9.442;2023-03-19T01:49:37;94358.88;;;8.00;100.00
11487;BME280;10510;47.942;9.442;2023-03-19T01:51:41;94364.69;;;8.02;100.00
11487;BME280;10510;47.942;9.442;2023-03-19T01:53:49;94360.78;;;8.06;100.00
11487;BME280;10510;47.942;9.442;2023-03-19T01:55:54;94364.63;;;8.10;100.00
11487;BME280;10510;47.942;9.442;2023-03-19T01:57:56;94363.28;;;8.14;100.00
11487;BME280;10510;47.942;9.442;2023-03-19T01:59:59;94373.34;;;8.17;100.00
11487;BME280;10510;47.942;9.442;2023-03-19T02:02:03;94371.41;;;8.19;100.00
11487;BME280;10510;47.942;9.442;2023-03-19T02:04:05;94369.78;;;8.18;100.00
11487;BME280;10510;47.942;9.442;2023-03-19T02:06:07;94368.97;;;8.18;100.00
11487;BME280;10510;47.942;9.442;2023-03-19T02:08:11;94373.69;;;8.14;100.00
11487;BME280;10510;47.942;9.442;2023-03-19T02:10:15;94367.88;;;8.12;100.00
11487;BME280;10510;47.942;9.442;2023-03-19T02:12:16;94374.41;;;8.08;100.00
11487;BME280;10510;47.942;9.442;2023-03-19T02:14:17;94373.50;;;8.01;100.00
11487;BME280;10510;47.942;9.442;2023-03-19T02:16:17;94378.41;;;7.96;100.00
11487;BME280;10510;47.942;9.442;2023-03-19T02:18:18;94378.94;;;7.91;100.00
11487;BME280;10510;47.942;9.442;2023-03-19T02:22:32;94383.19;;;7.84;100.00
11487;BME280;10510;47.942;9.442;2023-03-19T02:24:35;94392.00;;;7.83;100.00
11487;BME280;10510;47.942;9.442;2023-03-19T02:26:38;94394.41;;;7.85;100.00
11487;BME280;10510;47.942;9.442;2023-03-19T02:28:42;94387.25;;;7.87;100.00
11487;BME280;10510;47.942;9.442;2023-03-19T02:30:44;94383.66;;;7.88;100.00
11487;BME280;10510;47.942;9.442;2023-03-19T02:32:44;94386.91;;;7.90;100.00
11487;BME280;10510;47.942;9.442;2023-03-19T02:34:46;94387.34;;;7.93;100.00
11487;BME280;10510;47.942;9.442;2023-03-19T02:36:52;94396.47;;;7.97;100.00
11487;BME280;10510;47.942;9.442;2023-03-19T02:38:55;94389.75;;;8.03;100.00
11487;BME280;10510;47.942;9.442;2023-03-19T02:41:07;94382.41;;;8.07;100.00
11487;BME280;10510;47.942;9.442;2023-03-19T02:43:07;94388.06;;;8.10;100.00
11487;BME280;10510;47.942;9.442;2023-03-19T02:45:08;94386.91;;;8.13;100.00
11487;BME280;10510;47.942;9.442;2023-03-19T02:47:08;94393.72;;;8.14;100.00
11487;BME280;10510;47.942;9.442;2023-03-19T02:49:09;94394.53;;;8.14;100.00
11487;BME280;10510;47.942;9.442;2023-03-19T02:51:10;94384.13;;;8.14;100.00
11487;BME280;10510;47.942;9.442;2023-03-19T02:53:11;94386.72;;;8.14;100.00
11487;BME280;10510;47.942;9.442;2023-03-19T02:55:11;94387.72;;;8.13;100.00
11487;BME280;10510;47.942;9.442;2023-03-19T02:57:11;94390.16;;;8.15;100.00
11487;BME280;10510;47.942;9.442;2023-03-19T02:59:12;94389.31;;;8.14;100.00
11487;BME280;10510;47.942;9.442;2023-03-19T03:01:12;94388.53;;;8.14;100.00
11487;BME280;10510;47.942;9.442;2023-03-19T03:03:13;94387.72;;;8.13;100.00
11487;BME280;10510;47.942;9.442;2023-03-19T03:05:13;94398.13;;;8.13;100.00
11487;BME280;10510;47.942;9.442;2023-03-19T03:07:13;94394.88;;;8.11;100.00
11487;BME280;10510;47.942;9.442;2023-03-19T03:09:14;94399.13;;;8.12;100.00
11487;BME280;10510;47.942;9.442;2023-03-19T03:11:14;94401.72;;;8.12;100.00
11487;BME280;10510;47.942;9.442;2023-03-19T03:13:14;94400.91;;;8.12;100.00
11487;BME280;10510;47.942;9.442;2023-03-19T03:15:15;94401.06;;;8.10;100.00
11487;BME280;10510;47.942;9.442;2023-03-19T03:17:15;94403.22;;;8.07;100.00
11487;BME280;10510;47.942;9.442;2023-03-19T03:19:16;94405.03;;;8.06;100.00
11487;BME280;10510;47.942;9.442;2023-03-19T03:21:16;94403.38;;;8.05;100.00
11487;BME280;10510;47.942;9.442;2023-03-19T03:23:19;94412.34;;;8.03;100.00
11487;BME280;10510;47.942;9.442;2023-03-19T03:25:21;94408.13;;;8.02;100.00
11487;BME280;10510;47.942;9.442;2023-03-19T03:27:21;94418.59;;;7.93;100.00
11487;BME280;10510;47.942;9.442;2023-03-19T03:29:21;94420.09;;;7.88;100.00
11487;BME280;10510;47.942;9.442;2023-03-19T03:31:22;94409.66;;;7.88;100.00
11487;BME280;10510;47.942;9.442;2023-03-19T03:33:22;94415.06;;;7.86;100.00
11487;BME280;10510;47.942;9.442;2023-03-19T03:35:22;94417.81;;;7.85;100.00
11487;BME280;10510;47.942;9.442;2023-03-19T03:37:23;94419.81;;;7.83;100.00
11487;BME280;10510;47.942;9.442;2023-03-19T03:39:23;94418.16;;;7.82;100.00
11487;BME280;10510;47.942;9.442;2023-03-19T03:41:23;94424.38;;;7.81;100.00
11487;BME280;10510;47.942;9.442;2023-03-19T03:43:24;94423.09;;;7.77;100.00
11487;BME280;10510;47.942;9.442;2023-03-19T03:45:24;94426.03;;;7.73;100.00
11487;BME280;10510;47.942;9.442;2023-03-19T03:47:24;94426.19;;;7.72;100.00
11487;BME280;10510;47.942;9.442;2023-03-19T03:49:25;94428.94;;;7.70;100.00
11487;BME280;10510;47.942;9.442;2023-03-19T03:51:26;94432.25;;;7.64;100.00
11487;BME280;10510;47.942;9.442;2023-03-19T03:53:26;94442.19;;;7.61;100.00
11487;BME280;10510;47.942;9.442;2023-03-19T03:55:26;94441.72;;;7.57;100.00
11487;BME280;10510;47.942;9.442;2023-03-19T03:57:27;94444.81;;;7.53;100.00
11487;BME280;10510;47.942;9.442;2023-03-19T03:59:27;94448.09;;;7.46;100.00
11487;BME280;10510;47.942;9.442;2023-03-19T04:01:28;94446.97;;;7.41;100.00
11487;BME280;10510;47.942;9.442;2023-03-19T04:03:28;94457.38;;;7.41;100.00
11487;BME280;10510;47.942;9.442;2023-03-19T04:05:28;94461.94;;;7.39;100.00
11487;BME280;10510;47.942;9.442;2023-03-19T04:07:28;94463.25;;;7.35;100.00
11487;BME280;10510;47.942;9.442;2023-03-19T04:09:29;94462.63;;;7.33;100.00
11487;BME280;10510;47.942;9.442;2023-03-19T04:11:30;94466.81;;;7.34;100.00
11487;BME280;10510;47.942;9.442;2023-03-19T04:13:30;94454.63;;;7.34;100.00
11487;BME280;10510;47.942;9.442;2023-03-19T04:15:35;94456.91;;;7.37;100.00
11487;BME280;10510;47.942;9.442;2023-03-19T04:17:35;94459.16;;;7.40;100.00
11487;BME280;10510;47.942;9.442;2023-03-19T04:19:36;94457.38;;;7.41;100.00
11487;BME280;10510;47.942;9.442;2023-03-19T04:21:36;94457.03;;;7.44;100.00
11487;BME280;10510;47.942;9.442;2023-03-19T04:23:36;94461.28;;;7.45;100.00
11487;BME280;10510;47.942;9.442;2023-03-19T04:25:40;94454.09;;;7.47;100.00
11487;BME280;10510;47.942;9.442;2023-03-19T04:27:40;94461.75;;;7.48;100.00
11487;BME280;10510;47.942;9.442;2023-03-19T04:29:40;94466.94;;;7.48;100.00
11487;BME280;10510;47.942;9.442;2023-03-19T04:31:41;94473.94;;;7.48;100.00
11487;BME280;10510;47.942;9.442;2023-03-19T04:33:41;94463.69;;;7.46;100.00
11487;BME280;10510;47.942;9.442;2023-03-19T04:35:41;94465.66;;;7.44;100.00
11487;BME280;10510;47.942;9.442;2023-03-19T04:37:42;94465.47;;;7.46;100.00
11487;BME280;10510;47.942;9.442;2023-03-19T04:39:47;94467.94;;;7.47;100.00
11487;BME280;10510;47.942;9.442;2023-03-19T04:41:47;94474.75;;;7.48;100.00
11487;BME280;10510;47.942;9.442;2023-03-19T04:43:48;94476.69;;;7.46;100.00
11487;BME280;10510;47.942;9.442;2023-03-19T04:45:48;94478.50;;;7.38;100.00
11487;BME280;10510;47.942;9.442;2023-03-19T04:47:49;94476.09;;;7.36;100.00
11487;BME280;10510;47.942;9.442;2023-03-19T04:49:50;94472.69;;;7.36;100.00
11487;BME280;10510;47.942;9.442;2023-03-19T04:51:50;94484.69;;;7.37;100.00
11487;BME280;10510;47.942;9.442;2023-03-19T04:53:51;94488.63;;;7.33;100.00
11487;BME280;10510;47.942;9.442;2023-03-19T04:55:51;94488.63;;;7.33;100.00
11487;BME280;10510;47.942;9.442;2023-03-19T04:57:51;94489.56;;;7.32;100.00
11487;BME280;10510;47.942;9.442;2023-03-19T04:59:51;94490.22;;;7.34;100.00
11487;BME280;10510;47.942;9.442;2023-03-19T05:01:52;94494.94;;;7.30;100.00
11487;BME280;10510;47.942;9.442;2023-03-19T05:03:52;94496.56;;;7.31;100.00
11487;BME280;10510;47.942;9.442;2023-03-19T05:05:53;94499.97;;;7.32;100.00
11487;BME280;10510;47.942;9.442;2023-03-19T05:07:54;94488.63;;;7.33;100.00
11487;BME280;10510;47.942;9.442;2023-03-19T05:09:56;94498.03;;;7.34;100.00
11487;BME280;10510;47.942;9.442;2023-03-19T05:11:56;94495.09;;;7.37;100.00
11487;BME280;10510;47.942;9.442;2023-03-19T05:13:57;94502.75;;;7.38;100.00
11487;BME280;10510;47.942;9.442;2023-03-19T05:15:57;94506.78;;;7.41;100.00
11487;BME280;10510;47.942;9.442;2023-03-19T05:17:58;94506.63;;;7.42;100.00
11487;BME280;10510;47.942;9.442;2023-03-19T05:19:59;94510.03;;;7.43;100.00
11487;BME280;10510;47.942;9.442;2023-03-19T05:21:59;94513.28;;;7.45;100.00
11487;BME280;10510;47.942;9.442;2023-03-19T05:23:59;94519.28;;;7.45;100.00
11487;BME280;10510;47.942;9.442;2023-03-19T05:26:00;94521.69;;;7.47;100.00
11487;BME280;10510;47.942;9.442;2023-03-19T05:28:01;94518.94;;;7.48;100.00
11487;BME280;10510;47.942;9.442;2023-03-19T05:30:03;94521.41;;;7.50;100.00
11487;BME280;10510;47.942;9.442;2023-03-19T05:32:04;94520.56;;;7.49;100.00
11487;BME280;10510;47.942;9.442;2023-03-19T05:34:04;94530.16;;;7.49;100.00
11487;BME280;10510;47.942;9.442;2023-03-19T05:36:05;94522.34;;;7.49;100.00
11487;BME280;10510;47.942;9.442;2023-03-19T05:38:06;94523.16;;;7.49;100.00
11487;BME280;10510;47.942;9.442;2023-03-19T05:40:07;94524.81;;;7.50;100.00
11487;BME280;10510;47.942;9.442;2023-03-19T05:42:08;94530.81;;;7.51;100.00
11487;BME280;10510;47.942;9.442;2023-03-19T05:44:08;94528.22;;;7.51;100.00
11487;BME280;10510;47.942;9.442;2023-03-19T05:46:09;94527.22;;;7.52;100.00
11487;BME280;10510;47.942;9.442;2023-03-19T05:48:09;94533.22;;;7.53;100.00
11487;BME280;10510;47.942;9.442;2023-03-19T05:50:10;94535.81;;;7.53;100.00
11487;BME280;10510;47.942;9.442;2023-03-19T05:52:11;94542.66;;;7.54;100.00
11487;BME280;10510;47.942;9.442;2023-03-19T05:54:11;94531.47;;;7.53;100.00
11487;BME280;10510;47.942;9.442;2023-03-19T05:56:11;94537.47;;;7.54;100.00
11487;BME280;10510;47.942;9.442;2023-03-19T05:58:12;94542.66;;;7.54;100.00
11487;BME280;10510;47.942;9.442;2023-03-19T06:00:13;94542.66;;;7.54;100.00
11487;BME280;10510;47.942;9.442;2023-03-19T06:02:15;94543.28;;;7.56;100.00
11487;BME280;10510;47.942;9.442;2023-03-19T06:04:15;94540.69;;;7.56;100.00
11487;BME280;10510;47.942;9.442;2023-03-19T06:06:15;94544.94;;;7.57;100.00
11487;BME280;10510;47.942;9.442;2023-03-19T06:08:16;94541.34;;;7.58;100.00
11487;BME280;10510;47.942;9.442;2023-03-19T06:10:17;94545.41;;;7.60;100.00
11487;BME280;10510;47.942;9.442;2023-03-19T06:12:17;94546.06;;;7.62;100.00
11487;BME280;10510;47.942;9.442;2023-03-19T06:14:17;94543.28;;;7.64;100.00
11487;BME280;10510;47.942;9.442;2023-03-19T06:16:18;94546.53;;;7.66;100.00
11487;BME280;10510;47.942;9.442;2023-03-19T06:18:18;94550.41;;;7.70;100.00
11487;BME280;10510;47.942;9.442;2023-03-19T06:20:19;94552.69;;;7.73;100.00
11487;BME280;10510;47.942;9.442;2023-03-19T06:22:19;94547.13;;;7.76;100.00
11487;BME280;10510;47.942;9.442;2023-03-19T06:24:19;94547.63;;;7.80;100.00
11487;BME280;10510;47.942;9.442;2023-03-19T06:26:19;94550.53;;;7.85;100.00
11487;BME280;10510;47.942;9.442;2023-03-19T06:28:20;94553.44;;;7.90;100.00
11487;BME280;10510;47.942;9.442;2023-03-19T06:30:20;94549.50;;;7.94;100.00
11487;BME280;10510;47.942;9.442;2023-03-19T06:32:21;94553.22;;;8.00;100.00
11487;BME280;10510;47.942;9.442;2023-03-19T06:34:21;94554.34;;;8.05;100.00
11487;BME280;10510;47.942;9.442;2023-03-19T06:36:21;94554.66;;;8.10;100.00
11487;BME280;10510;47.942;9.442;2023-03-19T06:38:22;94548.59;;;8.18;100.00
11487;BME280;10510;47.942;9.442;2023-03-19T06:40:22;94536.84;;;8.22;100.00
11487;BME280;10510;47.942;9.442;2023-03-19T06:42:23;94545.78;;;8.28;100.00
11487;BME280;10510;47.942;9.442;2023-03-19T06:44:23;94544.09;;;8.35;100.00
11487;BME280;10510;47.942;9.442;2023-03-19T06:46:24;94552.25;;;8.40;100.00
11487;BME280;10510;47.942;9.442;2023-03-19T06:48:24;94546.69;;;8.43;100.00
11487;BME280;10510;47.942;9.442;2023-03-19T06:50:25;94550.59;;;8.47;100.00
11487;BME280;10510;47.942;9.442;2023-03-19T06:52:26;94550.41;;;8.49;100.00
11487;BME280;10510;47.942;9.442;2023-03-19T06:54:26;94554.47;;;8.51;100.00
11487;BME280;10510;47.942;9.442;2023-03-19T06:56:26;94562.94;;;8.53;100.00
11487;BME280;10510;47.942;9.442;2023-03-19T06:58:28;94560.31;;;8.53;100.00
11487;BME280;10510;47.942;9.442;2023-03-19T07:00:28;94549.56;;;8.56;100.00
11487;BME280;10510;47.942;9.442;2023-03-19T07:02:29;94558.81;;;8.59;100.00
11487;BME280;10510;47.942;9.442;2023-03-19T07:04:29;94555.03;;;8.61;100.00
11487;BME280;10510;47.942;9.442;2023-03-19T07:06:30;94556.69;;;8.62;100.00
11487;BME280;10510;47.942;9.442;2023-03-19T07:08:30;94549.03;;;8.61;100.00
11487;BME280;10510;47.942;9.442;2023-03-19T07:10:30;94555.69;;;8.63;100.00
11487;BME280;10510;47.942;9.442;2023-03-19T07:12:31;94558.94;;;8.66;100.00
11487;BME280;10510;47.942;9.442;2023-03-19T07:14:31;94553.38;;;8.69;100.00
11487;BME280;10510;47.942;9.442;2023-03-19T07:16:31;94557.44;;;8.71;100.00
11487;BME280;10510;47.942;9.442;2023-03-19T07:18:32;94562.47;;;8.73;100.00
11487;BME280;10510;47.942;9.442;2023-03-19T07:20:32;94563.28;;;8.73;100.00
11487;BME280;10510;47.942;9.442;2023-03-19T07:22:32;94565.06;;;8.73;100.00
11487;BME280;10510;47.942;9.442;2023-03-19T07:24:32;94564.91;;;8.74;100.00
11487;BME280;10510;47.942;9.442;2023-03-19T07:26:33;94566.34;;;8.77;100.00
11487;BME280;10510;47.942;9.442;2023-03-19T07:28:33;94567.97;;;8.78;100.00
11487;BME280;10510;47.942;9.442;2023-03-19T07:30:33;94564.38;;;8.79;100.00
11487;BME280;10510;47.942;9.442;2023-03-19T07:32:34;94567.78;;;8.79;100.00
11487;BME280;10510;47.942;9.442;2023-03-19T07:34:35;94569.59;;;8.79;100.00
11487;BME280;10510;47.942;9.442;2023-03-19T07:36:36;94567.63;;;8.81;100.00
11487;BME280;10510;47.942;9.442;2023-03-19T07:38:36;94575.59;;;8.79;100.00
11487;BME280;10510;47.942;9.442;2023-03-19T07:40:36;94571.22;;;8.80;100.00
11487;BME280;10510;47.942;9.442;2023-03-19T07:42:37;94568.63;;;8.80;100.00
11487;BME280;10510;47.942;9.442;2023-03-19T07:44:37;94572.03;;;8.80;100.00
11487;BME280;10510;47.942;9.442;2023-03-19T07:46:37;94571.38;;;8.78;100.00
11487;BME280;10510;47.942;9.442;2023-03-19T07:48:38;94562.56;;;8.79;100.00
11487;BME280;10510;47.942;9.442;2023-03-19T07:50:38;94567.63;;;8.81;100.00
11487;BME280;10510;47.942;9.442;2023-03-19T07:52:38;94570.88;;;8.83;100.00
11487;BME280;10510;47.942;9.442;2023-03-19T07:54:38;94569.88;;;8.84;100.00
11487;BME280;10510;47.942;9.442;2023-03-19T07:56:39;94574.94;;;8.85;100.00
11487;BME280;10510;47.942;9.442;2023-03-19T07:58:40;94575.75;;;8.86;100.00
11487;BME280;10510;47.942;9.442;2023-03-19T08:00:40;94575.38;;;8.89;100.00
11487;BME280;10510;47.942;9.442;2023-03-19T08:02:40;94573.41;;;8.91;100.00
11487;BME280;10510;47.942;9.442;2023-03-19T08:04:41;94567.03;;;8.94;100.00
11487;BME280;10510;47.942;9.442;2023-03-19T08:06:42;94567.31;;;8.99;100.00
11487;BME280;10510;47.942;9.442;2023-03-19T08:08:42;94567.97;;;9.01;100.00
11487;BME280;10510;47.942;9.442;2023-03-19T08:10:42;94576.25;;;9.04;100.00
11487;BME280;10510;47.942;9.442;2023-03-19T08:12:43;94563.66;;;9.08;100.00
11487;BME280;10510;47.942;9.442;2023-03-19T08:14:43;94572.59;;;9.14;100.00
11487;BME280;10510;47.942;9.442;2023-03-19T08:16:44;94568.81;;;9.16;100.00
11487;BME280;10510;47.942;9.442;2023-03-19T08:18:50;94566.84;;;9.18;100.00
11487;BME280;10510;47.942;9.442;2023-03-19T08:20:53;94576.94;;;9.21;100.00
11487;BME280;10510;47.942;9.442;2023-03-19T08:22:54;94569.28;;;9.20;100.00
11487;BME280;10510;47.942;9.442;2023-03-19T08:24:57;94569.91;;;9.22;100.00
11487;BME280;10510;47.942;9.442;2023-03-19T08:27:00;94577.72;;;9.22;100.00
11487;BME280;10510;47.942;9.442;2023-03-19T08:29:01;94572.53;;;9.22;100.00
11487;BME280;10510;47.942;9.442;2023-03-19T08:31:12;94573.16;;;9.24;100.00
11487;BME280;10510;47.942;9.442;2023-03-19T08:33:12;94578.38;;;9.24;100.00
11487;BME280;10510;47.942;9.442;2023-03-19T08:35:13;94576.56;;;9.24;100.00
11487;BME280;10510;47.942;9.442;2023-03-19T08:37:13;94575.59;;;9.25;100.00
11487;BME280;10510;47.942;9.442;2023-03-19T08:39:14;94572.63;;;9.28;100.00
11487;BME280;10510;47.942;9.442;2023-03-19T08:41:14;94578.47;;;9.30;100.00
11487;BME280;10510;47.942;9.442;2023-03-19T08:43:15;94574.50;;;9.35;100.00
11487;BME280;10510;47.942;9.442;2023-03-19T08:45:15;94571.19;;;9.41;100.00
11487;BME280;10510;47.942;9.442;2023-03-19T08:47:16;94577.50;;;9.46;100.00
11487;BME280;10510;47.942;9.442;2023-03-19T08:49:16;94573.56;;;9.50;100.00
11487;BME280;10510;47.942;9.442;2023-03-19T08:51:16;94572.06;;;9.56;100.00
11487;BME280;10510;47.942;9.442;2023-03-19T08:53:17;94565.63;;;9.59;100.00
11487;BME280;10510;47.942;9.442;2023-03-19T08:55:20;94572.13;;;9.63;100.00
11487;BME280;10510;47.942;9.442;2023-03-19T08:57:21;94556.28;;;9.64;100.00
11487;BME280;10510;47.942;9.442;2023-03-19T08:59:22;94559.38;;;9.68;100.00
11487;BME280;10510;47.942;9.442;2023-03-19T09:01:25;94565.19;;;9.70;100.00
11487;BME280;10510;47.942;9.442;2023-03-19T09:03:29;94562.88;;;9.75;100.00
11487;BME280;10510;47.942;9.442;2023-03-19T09:05:30;94566.94;;;9.77;100.00
11487;BME280;10510;47.942;9.442;2023-03-19T09:07:30;94562.50;;;9.78;100.00
11487;BME280;10510;47.942;9.442;2023-03-19T09:09:31;94568.53;;;9.78;100.00
11487;BME280;10510;47.942;9.442;2023-03-19T09:11:32;94561.34;;;9.81;100.00
11487;BME280;10510;47.942;9.442;2023-03-19T09:13:32;94566.38;;;9.82;100.00
11487;BME280;10510;47.942;9.442;2023-03-19T09:15:39;94573.03;;;9.85;100.00
11487;BME280;10510;47.942;9.442;2023-03-19T09:17:43;94568.63;;;9.85;100.00
11487;BME280;10510;47.942;9.442;2023-03-19T09:19:49;94571.88;;;9.87;100.00
11487;BME280;10510;47.942;9.442;2023-03-19T09:21:49;94571.22;;;9.85;100.00
11487;BME280;10510;47.942;9.442;2023-03-19T09:23:50;94575.94;;;9.90;100.00
11487;BME280;10510;47.942;9.442;2023-03-19T09:25:52;94568.19;;;9.96;100.00
11487;BME280;10510;47.942;9.442;2023-03-19T09:27:52;94565.84;;;10.01;100.00
11487;BME280;10510;47.942;9.442;2023-03-19T09:29:53;94572.31;;;10.06;100.00
11487;BME280;10510;47.942;9.442;2023-03-19T09:31:53;94575.03;;;10.12;100.00
11487;BME280;10510;47.942;9.442;2023-03-19T09:33:53;94575.47;;;10.16;100.00
11487;BME280;10510;47.942;9.442;2023-03-19T09:36:00;94570.03;;;10.17;100.00
11487;BME280;10510;47.942;9.442;2023-03-19T09:38:01;94568.50;;;10.23;100.00
11487;BME280;10510;47.942;9.442;2023-03-19T09:40:20;94570.31;;;10.22;100.00
11487;BME280;10510;47.942;9.442;2023-03-19T09:44:34;94569.44;;;10.30;100.00
11487;BME280;10510;47.942;9.442;2023-03-19T09:46:43;94571.06;;;10.31;100.00
11487;BME280;10510;47.942;9.442;2023-03-19T09:48:58;94575.28;;;10.32;100.00
11487;BME280;10510;47.942;9.442;2023-03-19T09:51:04;94573.94;;;10.36;100.00
11487;BME280;10510;47.942;9.442;2023-03-19T09:57:42;94561.69;;;10.58;100.00
11487;BME280;10510;47.942;9.442;2023-03-19T09:59:44;94561.34;;;10.61;100.00
11487;BME280;10510;47.942;9.442;2023-03-19T10:11:34;94554.03;;;11.43;100.00
11487;BME280;10510;47.942;9.442;2023-03-19T10:16:00;94547.88;;;13.01;100.00
11487;BME280;10510;47.942;9.442;2023-03-19T10:18:10;94538.63;;;13.65;100.00
11487;BME280;10510;47.942;9.442;2023-03-19T10:20:40;94541.44;;;14.35;100.00
11487;BME280;10510;47.942;9.442;2023-03-19T10:22:49;94543.31;;;14.80;100.00
11487;BME280;10510;47.942;9.442;2023-03-19T10:24:52;94539.34;;;15.20;100.00
11487;BME280;10510;47.942;9.442;2023-03-19T10:26:58;94539.69;;;15.56;100.00
11487;BME280;10510;47.942;9.442;2023-03-19T10:29:17;94538.03;;;16.05;100.00
11487;BME280;10510;47.942;9.442;2023-03-19T10:31:55;94541.50;;;16.24;100.00
11487;BME280;10510;47.942;9.442;2023-03-19T10:34:10;94540.53;;;16.18;100.00
11487;BME280;10510;47.942;9.442;2023-03-19T10:36:13;94535.69;;;15.97;100.00
11487;BME280;10510;47.942;9.442;2023-03-19T10:38:25;94542.19;;;15.51;100.00
11487;BME280;10510;47.942;9.442;2023-03-19T10:43:12;94535.13;;;14.94;100.00
11487;BME280;10510;47.942;9.442;2023-03-19T10:45:31;94531.16;;;14.79;100.00
11487;BME280;10510;47.942;9.442;2023-03-19T10:47:37;94526.53;;;14.74;100.00
11487;BME280;10510;47.942;9.442;2023-03-19T10:49:38;94529.75;;;14.76;100.00
11487;BME280;10510;47.942;9.442;2023-03-19T10:51:39;94528.47;;;14.85;100.00
11487;BME280;10510;47.942;9.442;2023-03-19T10:53:42;94529.06;;;14.87;100.00
11487;BME280;10510;47.942;9.442;2023-03-19T10:56:16;94526.38;;;14.94;100.00
11487;BME280;10510;47.942;9.442;2023-03-19T10:58:19;94517.00;;;15.05;100.00
11487;BME280;10510;47.942;9.442;2023-03-19T11:00:23;94517.38;;;15.08;100.00
11487;BME280;10510;47.942;9.442;2023-03-19T11:02:24;94528.56;;;15.04;100.00
11487;BME280;10510;47.942;9.442;2023-03-19T11:04:30;94515.91;;;14.87;100.00
11487;BME280;10510;47.942;9.442;2023-03-19T11:06:34;94531.38;;;14.77;100.00
11487;BME280;10510;47.942;9.442;2023-03-19T11:08:36;94521.97;;;14.88;100.00